Main page


Airports :

Indianapolis, Indiana, United States

Indianapolis International Airport

latitude: 39-43-30N, longitude: 086-16-55W, elevation: 243 m

Current weather observation

The report was made 36 minutes ago, at 22:54 UTC
Wind 10 kt from the Northwest
Temperature 8°C
Humidity 29%
Pressure 1025 hPa
Visibility: 16.1 km
Clear sky

METAR: KIND 222254Z 32010KT 10SM CLR 08/M09 A3028 RMK AO2 SLP259 T00831089

Time: 19:30 (23:30 UTC)


The report was made 3 hours and 9 minutes ago, at 20:21 UTC
Forecast valid from 22 at 20 UTC to 23 at 24 UTC
Wind 13 kt from the North/Northwest with gusts up to 19 kt
Visibility: 10 km
Clear sky
From 23 at 0000 UTC
Wind 6 kt from the North/Northwest
Visibility: 10 km
Few clouds at a height of 25000 ft

TAF: KIND 222021Z 2220/2324 33013G19KT P6SM SKC FM230000 33006KT P6SM FEW250

Weather observations and forecasts of more than 4000 airports (METAR and TAF reports).

The available stations are represented by yellow and red dots on the map.

Hover mouse over dot to see the name of the station.

Then click to see weather observations and forecasts.

To change the map : click on the green buttons with a black cross to zoom in, on the green button with a dash to zoom out, or on the green arrows for adjacent maps.